createdAt,value
2022-12-25T00:00:56.791Z,17.10
2022-12-25T00:03:23.577Z,13.90
2022-12-25T00:05:50.323Z,15.30
2022-12-25T00:08:17.883Z,21.38
2022-12-25T00:10:45.596Z,22.42
2022-12-25T00:13:12.237Z,27.50
2022-12-25T00:15:42.006Z,18.08
2022-12-25T00:18:08.625Z,19.30
2022-12-25T00:20:35.157Z,13.50
2022-12-25T00:23:01.594Z,17.67
2022-12-25T00:25:28.169Z,19.60
2022-12-25T00:27:54.685Z,15.95
2022-12-25T00:30:21.200Z,19.80
2022-12-25T00:32:47.641Z,15.25
2022-12-25T00:35:14.213Z,18.23
2022-12-25T00:37:40.810Z,21.00
2022-12-25T00:40:07.977Z,16.52
2022-12-25T00:42:34.548Z,17.80
2022-12-25T00:45:01.579Z,13.15
2022-12-25T00:47:28.307Z,16.95
2022-12-25T00:49:55.416Z,15.73
2022-12-25T00:52:21.885Z,20.92
2022-12-25T00:54:48.361Z,12.75
2022-12-25T00:57:14.943Z,14.55
2022-12-25T00:59:41.433Z,20.30
2022-12-25T01:02:26.525Z,11.60
2022-12-25T01:04:57.371Z,20.85
2022-12-25T01:07:26.452Z,22.38
2022-12-25T01:10:11.459Z,15.10
2022-12-25T01:12:41.608Z,19.98
2022-12-25T01:15:10.197Z,16.80
2022-12-25T01:17:36.773Z,15.75
2022-12-25T01:20:04.516Z,14.35
2022-12-25T01:22:31.303Z,17.10
2022-12-25T01:24:57.995Z,11.07
2022-12-25T01:27:24.566Z,17.87
2022-12-25T01:29:51.146Z,18.98
2022-12-25T01:32:18.377Z,13.45
2022-12-25T01:34:48.138Z,14.23
2022-12-25T01:37:17.114Z,14.45
2022-12-25T01:39:43.743Z,14.37
2022-12-25T01:42:21.254Z,17.67
2022-12-25T01:44:47.716Z,14.40
2022-12-25T01:47:16.981Z,14.23
2022-12-25T01:49:47.965Z,11.25
2022-12-25T01:52:23.334Z,15.70
2022-12-25T01:54:55.496Z,15.98
2022-12-25T01:57:30.683Z,16.02
2022-12-25T01:59:58.412Z,15.57
2022-12-25T02:02:25.978Z,15.75
2022-12-25T02:05:08.598Z,13.13
2022-12-25T02:07:38.353Z,14.55
2022-12-25T02:10:05.224Z,17.92
2022-12-25T02:12:34.317Z,17.75
2022-12-25T02:15:13.669Z,23.08
2022-12-25T02:17:54.322Z,10.80
2022-12-25T02:20:46.854Z,12.57
2022-12-25T02:23:31.837Z,14.57
2022-12-25T02:26:16.868Z,19.55
2022-12-25T02:29:00.755Z,15.32
2022-12-25T02:31:46.176Z,14.67
2022-12-25T02:34:37.550Z,20.45
2022-12-25T02:37:19.294Z,15.02
2022-12-25T02:39:57.897Z,16.10
2022-12-25T02:42:48.744Z,15.70
2022-12-25T02:45:40.109Z,21.50
2022-12-25T02:48:25.987Z,13.85
2022-12-25T02:51:12.582Z,12.88
2022-12-25T02:53:59.139Z,13.68
2022-12-25T02:56:48.039Z,12.52
2022-12-25T02:59:35.253Z,16.83
2022-12-25T03:02:22.440Z,14.45
2022-12-25T03:05:09.873Z,12.23
2022-12-25T03:07:40.959Z,13.95
2022-12-25T03:10:28.186Z,16.25
2022-12-25T03:13:06.190Z,18.00
2022-12-25T03:15:52.644Z,15.98
2022-12-25T03:18:24.483Z,14.55
2022-12-25T03:21:10.624Z,14.65
2022-12-25T03:23:57.971Z,15.18
2022-12-25T03:26:46.499Z,10.63
2022-12-25T03:29:35.818Z,20.98
2022-12-25T03:32:21.745Z,14.18
2022-12-25T03:35:25.700Z,13.23
2022-12-25T03:38:16.976Z,17.50
2022-12-25T03:41:15.490Z,14.73
2022-12-25T03:44:06.758Z,13.13
2022-12-25T03:46:55.721Z,17.83
2022-12-25T03:49:45.412Z,15.32
2022-12-25T03:52:33.604Z,16.10
2022-12-25T03:55:22.280Z,14.63
2022-12-25T03:58:07.537Z,14.45
2022-12-25T04:00:52.792Z,14.98
2022-12-25T04:03:38.023Z,13.23
2022-12-25T04:06:23.169Z,17.17
2022-12-25T04:09:08.410Z,14.97
2022-12-25T04:11:57.324Z,15.63
2022-12-25T04:14:45.661Z,19.25
2022-12-25T04:17:30.677Z,14.23
2022-12-25T04:20:15.465Z,14.90
2022-12-25T04:23:00.795Z,20.07
2022-12-25T04:25:45.863Z,16.67
2022-12-25T04:28:30.852Z,17.10
2022-12-25T04:31:19.428Z,15.10
2022-12-25T04:34:04.704Z,11.20
2022-12-25T04:36:31.391Z,13.60
2022-12-25T04:38:57.920Z,10.90
2022-12-25T04:41:24.465Z,11.93
2022-12-25T04:43:50.920Z,8.57
2022-12-25T04:46:17.644Z,11.60
2022-12-25T04:48:44.593Z,12.07
2022-12-25T04:51:22.448Z,13.15
2022-12-25T04:53:50.574Z,14.98
2022-12-25T07:07:12.539Z,7.95
2022-12-25T07:09:39.617Z,8.55
2022-12-25T07:12:15.238Z,6.97
2022-12-25T07:14:41.871Z,7.40
2022-12-25T07:17:08.369Z,5.35
2022-12-25T07:19:39.663Z,7.85
2022-12-25T07:22:09.544Z,6.75
2022-12-25T07:24:36.123Z,9.33
2022-12-25T07:27:02.748Z,8.48
2022-12-25T07:29:29.244Z,5.72
2022-12-25T07:31:55.900Z,9.27
2022-12-25T07:34:23.934Z,8.07
2022-12-25T07:36:54.732Z,6.47
2022-12-25T07:39:21.217Z,7.93
2022-12-25T07:41:47.803Z,6.70
2022-12-25T07:44:14.996Z,9.68
2022-12-25T07:46:41.578Z,8.27
2022-12-25T07:49:08.622Z,7.10
2022-12-25T07:51:35.117Z,5.75
2022-12-25T07:54:01.854Z,6.80
2022-12-25T07:56:28.449Z,5.88
2022-12-25T07:58:55.102Z,8.77
2022-12-25T08:01:26.862Z,8.13
2022-12-25T08:04:01.912Z,6.53
2022-12-25T08:06:34.107Z,7.75
2022-12-25T08:09:18.603Z,7.60
2022-12-25T08:11:49.521Z,6.90
2022-12-25T08:14:16.011Z,5.23
2022-12-25T08:16:42.787Z,7.82
2022-12-25T08:19:09.687Z,6.18
2022-12-25T08:21:36.719Z,7.93
2022-12-25T08:24:03.573Z,9.70
2022-12-25T08:26:30.409Z,7.77
2022-12-25T08:28:57.405Z,7.13
2022-12-25T08:31:27.750Z,6.90
2022-12-25T08:33:57.418Z,7.03
2022-12-25T08:36:24.682Z,6.65
2022-12-25T08:38:52.080Z,6.73
2022-12-25T08:41:20.356Z,5.82
2022-12-25T08:43:46.913Z,5.95
2022-12-25T08:46:13.643Z,4.10
2022-12-25T08:48:44.989Z,5.95
2022-12-25T08:51:19.319Z,6.43
2022-12-25T08:53:47.767Z,5.93
2022-12-25T08:56:15.816Z,7.15
2022-12-25T08:58:43.199Z,5.38
2022-12-25T09:01:11.018Z,7.93
2022-12-25T09:03:37.816Z,3.93
2022-12-25T09:06:07.012Z,4.00
2022-12-25T09:08:34.474Z,6.90
2022-12-25T09:11:03.004Z,4.80
2022-12-25T09:13:30.106Z,5.18
2022-12-25T09:15:56.996Z,5.80
2022-12-25T09:18:23.516Z,4.80
2022-12-25T09:21:04.978Z,4.20
2022-12-25T09:23:32.713Z,5.85
2022-12-25T09:26:01.191Z,6.25
2022-12-25T09:28:28.230Z,8.87
2022-12-25T09:30:55.467Z,5.50
2022-12-25T09:33:22.864Z,5.60
2022-12-25T09:35:55.133Z,6.32
2022-12-25T09:38:21.659Z,5.28
2022-12-25T09:40:48.276Z,7.47
2022-12-25T09:43:21.316Z,4.85
2022-12-25T09:45:47.862Z,6.50
2022-12-25T09:48:16.350Z,6.10
2022-12-25T09:50:56.169Z,8.13
2022-12-25T09:53:28.521Z,4.93
2022-12-25T09:56:10.320Z,5.95
2022-12-25T09:58:36.800Z,6.55
2022-12-25T10:01:12.421Z,7.15
2022-12-25T10:04:01.785Z,6.47
2022-12-25T10:06:47.561Z,5.43
2022-12-25T10:09:36.027Z,4.38
2022-12-25T10:12:42.652Z,5.75
2022-12-25T10:15:39.244Z,5.63
2022-12-25T10:18:30.154Z,7.78
2022-12-25T10:20:59.320Z,4.63
2022-12-25T10:23:30.614Z,8.07
2022-12-25T10:25:57.228Z,5.40
2022-12-25T10:28:29.891Z,5.55
2022-12-25T10:31:01.289Z,5.93
2022-12-25T10:33:28.416Z,10.33
2022-12-25T10:35:54.971Z,5.47
2022-12-25T10:38:21.581Z,12.20
2022-12-25T10:41:19.031Z,7.78
2022-12-25T10:43:51.954Z,4.22
2022-12-25T10:46:20.957Z,10.27
2022-12-25T10:48:56.013Z,12.77
2022-12-25T10:51:37.558Z,6.68
2022-12-25T10:54:17.883Z,14.15
2022-12-25T10:56:58.929Z,9.70
2022-12-25T10:59:27.908Z,7.83
2022-12-25T11:01:56.375Z,6.78
2022-12-25T11:04:28.576Z,11.63
2022-12-25T11:07:05.740Z,7.60
2022-12-25T11:09:33.357Z,4.70
2022-12-25T11:12:00.791Z,6.70
2022-12-25T11:14:29.211Z,9.27
2022-12-25T11:16:56.142Z,9.70
2022-12-25T11:19:25.670Z,10.73
2022-12-25T11:21:54.948Z,7.63
2022-12-25T11:24:25.127Z,6.73
2022-12-25T11:26:57.526Z,6.90
2022-12-25T11:29:47.012Z,7.72
2022-12-25T11:32:22.658Z,6.40
2022-12-25T11:34:50.847Z,9.02
2022-12-25T11:37:28.411Z,6.27
2022-12-25T11:39:54.958Z,8.27
2022-12-25T11:42:32.541Z,7.82
2022-12-25T11:45:25.896Z,5.22
2022-12-25T11:48:04.879Z,7.53
2022-12-25T11:50:46.533Z,5.97
2022-12-25T11:53:40.027Z,7.82
2022-12-25T11:56:10.212Z,7.57
2022-12-25T11:58:41.950Z,11.43
2022-12-25T12:01:22.425Z,7.78
2022-12-25T12:03:49.323Z,19.43
2022-12-25T12:06:18.368Z,16.48
2022-12-25T12:08:50.870Z,11.40
2022-12-25T12:11:37.336Z,9.93
2022-12-25T12:14:03.674Z,8.07
2022-12-25T12:16:30.808Z,9.70
2022-12-25T12:18:57.558Z,8.73
2022-12-25T12:21:27.533Z,10.77
2022-12-25T12:24:04.484Z,10.35
2022-12-25T12:26:37.885Z,6.57
2022-12-25T12:29:06.926Z,11.73
2022-12-25T12:31:40.426Z,10.50
2022-12-25T12:34:17.459Z,7.78
2022-12-25T12:36:44.149Z,18.90
2022-12-25T12:39:23.398Z,22.05
2022-12-25T12:41:50.209Z,9.10
2022-12-25T12:44:17.913Z,10.50
2022-12-25T12:46:56.253Z,7.75
2022-12-25T12:49:32.717Z,13.20
2022-12-25T12:52:23.086Z,10.63
2022-12-25T12:54:59.194Z,13.03
2022-12-25T12:57:30.066Z,12.13
2022-12-25T12:59:59.945Z,9.23
2022-12-25T13:02:51.598Z,12.45
2022-12-25T13:05:43.534Z,8.05
2022-12-25T13:08:35.641Z,8.07
2022-12-25T13:11:31.165Z,9.35
2022-12-25T13:14:01.462Z,10.90
2022-12-25T13:16:38.807Z,14.55
2022-12-25T13:19:08.782Z,12.98
2022-12-25T13:21:35.735Z,13.33
2022-12-25T13:24:21.331Z,12.45
2022-12-25T13:26:47.747Z,10.75
2022-12-25T13:29:30.908Z,13.15
2022-12-25T13:31:59.427Z,9.30
2022-12-25T13:34:29.535Z,11.13
2022-12-25T13:36:56.193Z,10.95
2022-12-25T13:39:25.077Z,11.05
2022-12-25T13:42:05.809Z,11.23
2022-12-25T13:44:43.799Z,9.80
2022-12-25T13:47:20.471Z,13.63
2022-12-25T13:49:49.024Z,10.30
2022-12-25T13:52:38.044Z,11.65
2022-12-25T13:55:14.966Z,8.63
2022-12-25T13:57:59.822Z,12.43
2022-12-25T14:00:59.800Z,11.30
2022-12-25T14:03:40.511Z,13.57
2022-12-25T14:06:17.844Z,13.07
2022-12-25T14:08:45.035Z,18.55
2022-12-25T14:11:15.534Z,16.48
2022-12-25T14:13:45.456Z,10.00
2022-12-25T14:16:17.129Z,13.18
2022-12-25T14:19:27.073Z,13.70
2022-12-25T14:21:59.990Z,9.60
2022-12-25T14:24:28.280Z,25.92
2022-12-25T14:27:00.529Z,27.43
2022-12-25T14:29:37.622Z,30.23
2022-12-25T14:32:06.955Z,34.63
2022-12-25T14:34:34.264Z,23.73
2022-12-25T14:37:03.291Z,16.42
2022-12-25T14:39:29.646Z,9.90
2022-12-25T14:41:56.528Z,11.18
2022-12-25T14:44:36.848Z,10.32
2022-12-25T14:47:17.942Z,11.68
2022-12-25T14:49:44.999Z,12.65
2022-12-25T14:52:28.138Z,13.23
2022-12-25T14:55:01.233Z,15.05
2022-12-25T14:57:33.716Z,13.48
2022-12-25T15:00:18.809Z,11.48
2022-12-25T15:02:47.134Z,13.20
2022-12-25T15:05:38.048Z,10.23
2022-12-25T15:08:04.553Z,10.68
2022-12-25T15:13:20.752Z,10.10
2022-12-25T15:15:54.260Z,10.52
2022-12-25T15:18:23.408Z,9.63
2022-12-25T15:20:54.251Z,11.02
2022-12-25T15:23:21.448Z,10.02
2022-12-25T15:25:48.446Z,9.30
2022-12-25T15:28:14.819Z,9.98
2022-12-25T15:30:41.320Z,9.57
2022-12-25T15:33:13.184Z,10.93
2022-12-25T15:35:39.774Z,10.68
2022-12-25T15:38:06.318Z,9.85
2022-12-25T15:40:32.794Z,11.80
2022-12-25T15:42:59.852Z,10.93
2022-12-25T15:45:30.305Z,11.68
2022-12-25T15:47:57.472Z,11.20
2022-12-25T15:50:24.028Z,14.00
2022-12-25T15:52:50.887Z,13.65
2022-12-25T15:55:17.578Z,9.90
2022-12-25T15:57:47.473Z,11.02
2022-12-25T16:00:22.526Z,12.13
2022-12-25T16:02:50.383Z,13.50
2022-12-25T16:05:17.040Z,12.13
2022-12-25T16:07:43.662Z,12.33
2022-12-25T16:10:19.869Z,12.75
2022-12-25T16:12:47.077Z,10.38
2022-12-25T16:15:15.381Z,11.25
2022-12-25T16:17:41.919Z,9.82
2022-12-25T16:20:08.932Z,10.73
2022-12-25T16:22:39.951Z,12.15
2022-12-25T16:25:15.647Z,13.93
2022-12-25T16:27:42.785Z,12.05
2022-12-25T16:30:10.863Z,13.15
2022-12-25T16:32:37.394Z,10.10
2022-12-25T16:35:04.782Z,14.10
2022-12-25T16:37:31.289Z,11.32
2022-12-25T16:39:57.672Z,11.45
2022-12-25T16:42:24.147Z,14.20
2022-12-25T16:44:50.538Z,15.30
2022-12-25T16:47:17.564Z,13.65
2022-12-25T16:49:44.183Z,14.48
2022-12-25T16:52:10.619Z,12.90
2022-12-25T16:54:37.015Z,11.85
2022-12-25T17:08:54.321Z,12.48
2022-12-25T17:11:48.514Z,13.60
2022-12-25T17:19:20.543Z,13.50
2022-12-25T17:29:52.041Z,13.80
2022-12-25T17:32:39.496Z,12.83
2022-12-25T17:41:52.262Z,14.27
2022-12-25T17:53:58.819Z,14.77
2022-12-25T18:00:03.105Z,16.30
2022-12-25T18:17:04.591Z,26.35
2022-12-25T18:20:03.864Z,30.42
2022-12-25T18:43:04.337Z,22.27
2022-12-25T18:46:31.755Z,24.70
2022-12-25T18:53:50.708Z,18.63
2022-12-25T18:57:07.542Z,20.98
2022-12-25T18:59:33.898Z,18.07
2022-12-25T19:02:00.393Z,19.30
2022-12-25T19:04:27.018Z,29.42
2022-12-25T19:06:53.373Z,23.85
2022-12-25T19:09:20.303Z,21.80
2022-12-25T19:11:47.073Z,21.73
2022-12-25T19:14:14.058Z,25.38
2022-12-25T19:28:14.740Z,29.00
2022-12-25T20:57:09.765Z,12.57
2022-12-25T20:59:38.557Z,12.60
2022-12-25T21:02:06.567Z,11.95
2022-12-25T21:04:33.188Z,11.60
2022-12-25T21:07:00.338Z,16.00
2022-12-25T21:09:26.766Z,18.92
2022-12-25T21:11:53.121Z,15.47
2022-12-25T21:14:19.593Z,12.90
2022-12-25T21:16:46.121Z,13.48
2022-12-25T21:19:12.555Z,13.75
2022-12-25T21:21:43.088Z,14.48
2022-12-25T21:24:10.412Z,14.97
2022-12-25T21:26:38.311Z,15.20
2022-12-25T21:29:06.719Z,13.27
2022-12-25T21:31:56.979Z,11.68
2022-12-25T21:34:23.639Z,14.10
2022-12-25T21:36:50.084Z,14.43
2022-12-25T21:39:16.806Z,14.80
2022-12-25T21:41:43.351Z,14.25
2022-12-25T21:44:10.530Z,13.48
2022-12-25T21:46:37.079Z,16.80
2022-12-25T21:49:03.578Z,14.97
2022-12-25T21:51:51.050Z,16.30
2022-12-25T21:54:19.478Z,16.60
2022-12-25T21:56:47.579Z,17.05
2022-12-25T21:59:21.443Z,13.75
2022-12-25T22:01:49.956Z,15.73
2022-12-25T22:04:18.981Z,16.27
2022-12-25T22:07:05.564Z,17.10
2022-12-25T22:09:33.032Z,16.38
2022-12-25T22:12:18.967Z,16.30
2022-12-25T22:14:57.050Z,17.30
2022-12-25T22:17:50.087Z,16.67
2022-12-25T22:20:21.248Z,16.83
2022-12-25T22:22:48.954Z,17.15
2022-12-25T22:25:16.628Z,18.58
2022-12-25T22:27:44.920Z,20.23
2022-12-25T22:30:18.493Z,16.92
2022-12-25T22:32:46.912Z,18.73
2022-12-25T22:35:17.573Z,20.48
2022-12-25T22:37:45.604Z,16.77
2022-12-25T22:40:16.058Z,19.50
2022-12-25T22:42:42.923Z,19.23
2022-12-25T22:45:10.995Z,18.75
2022-12-25T22:47:39.026Z,19.00
2022-12-25T22:50:07.283Z,19.33
2022-12-25T22:52:34.775Z,15.87
2022-12-25T22:55:02.735Z,19.40
2022-12-25T22:57:29.611Z,21.17
2022-12-25T22:59:56.176Z,16.90
2022-12-25T23:02:22.913Z,15.70
2022-12-25T23:04:49.581Z,15.30
2022-12-25T23:07:16.236Z,15.10
2022-12-25T23:09:43.864Z,15.02
2022-12-25T23:12:30.804Z,18.27
2022-12-25T23:14:57.480Z,17.58
2022-12-25T23:17:42.848Z,13.57
2022-12-25T23:20:28.633Z,12.88
2022-12-25T23:23:13.501Z,11.07
2022-12-25T23:25:58.253Z,11.75
2022-12-25T23:28:43.311Z,11.35
2022-12-25T23:31:09.786Z,9.67
2022-12-25T23:33:36.388Z,10.70
2022-12-25T23:36:02.889Z,9.98
2022-12-25T23:38:29.316Z,9.75
2022-12-25T23:40:57.058Z,11.63
2022-12-25T23:43:23.626Z,9.13
2022-12-25T23:45:50.062Z,9.48
2022-12-25T23:48:16.446Z,10.95
2022-12-25T23:50:43.176Z,12.10
2022-12-25T23:53:10.536Z,14.73
2022-12-25T23:55:37.073Z,14.17
2022-12-25T23:58:03.990Z,14.10
